Time;durP1;ratioP1;P1;durP2;ratioP2;P2;SDS_P1;SDS_P2;PMS_P1;PMS_P2;Temp;Humidity;BMP_temperature;BMP_pressure;BME280_temperature;BME280_humidity;BME280_pressure;Samples;Min_cycle;Max_cycle;Signal;HPM_P1;HPM_P2
2024/01/18 00:00:53;;;;;;;38.93;25.63;;;-1.40;99.90;;;;;;5120107;28;20955;-58
2024/01/18 00:03:21;;;;;;;32.97;25.80;;;-1.50;99.90;;;;;;5120577;28;20933;-58
2024/01/18 00:05:48;;;;;;;35.17;24.47;;;-1.40;99.90;;;;;;5120039;28;20454;-58
2024/01/18 00:08:15;;;;;;;36.50;26.10;;;-1.40;99.90;;;;;;5119180;28;20451;-58
2024/01/18 00:10:42;;;;;;;28.97;23.57;;;-1.40;99.90;;;;;;5120048;28;20564;-58
2024/01/18 00:13:10;;;;;;;29.77;24.40;;;-1.30;99.90;;;;;;5120068;28;20561;-58
2024/01/18 00:15:38;;;;;;;34.40;25.93;;;-1.20;99.90;;;;;;5119966;28;20744;-58
2024/01/18 00:18:07;;;;;;;33.33;25.80;;;-1.30;99.90;;;;;;5119977;28;20459;-58
2024/01/18 00:20:35;;;;;;;33.03;24.63;;;-1.30;99.90;;;;;;5119431;28;20769;-58
2024/01/18 00:23:02;;;;;;;33.87;24.57;;;-1.20;99.90;;;;;;5119625;28;20466;-58
2024/01/18 00:25:30;;;;;;;33.63;24.83;;;-1.20;99.90;;;;;;5119142;28;20462;-58
2024/01/18 00:27:57;;;;;;;35.97;27.70;;;-1.10;99.90;;;;;;5119150;28;20546;-58
2024/01/18 00:30:24;;;;;;;35.40;25.23;;;-1.10;99.90;;;;;;5119242;28;20458;-58
2024/01/18 00:32:51;;;;;;;36.70;26.50;;;-1.10;99.90;;;;;;5119268;28;20582;-58
2024/01/18 00:35:20;;;;;;;33.37;25.00;;;-1.10;99.90;;;;;;5119495;28;20454;-58
2024/01/18 00:37:48;;;;;;;41.43;26.00;;;-1.20;99.90;;;;;;5119174;28;20470;-58
2024/01/18 00:40:15;;;;;;;39.63;26.90;;;-1.10;99.90;;;;;;5118978;28;20489;-58
2024/01/18 00:42:42;;;;;;;35.50;24.27;;;-1.10;99.90;;;;;;5118118;28;20963;-58
2024/01/18 00:45:10;;;;;;;40.93;25.97;;;-1.10;99.90;;;;;;5119213;28;20574;-58
2024/01/18 00:47:37;;;;;;;32.93;23.83;;;-1.10;99.90;;;;;;5119284;28;20459;-58
2024/01/18 00:50:06;;;;;;;33.37;24.27;;;-1.10;99.90;;;;;;5118913;28;20525;-58
2024/01/18 00:52:34;;;;;;;35.07;23.30;;;-1.10;99.90;;;;;;5118849;28;20495;-58
2024/01/18 00:55:02;;;;;;;36.50;26.47;;;-1.20;99.90;;;;;;5118995;28;20456;-58
2024/01/18 00:57:29;;;;;;;34.27;24.73;;;-1.10;99.90;;;;;;5118807;28;20501;-58
2024/01/18 00:59:57;;;;;;;38.97;25.10;;;-1.10;99.90;;;;;;5118682;28;20462;-58
2024/01/18 01:02:24;;;;;;;35.40;25.07;;;-1.10;99.90;;;;;;5118465;28;20434;-58
2024/01/18 01:04:51;;;;;;;33.53;22.33;;;-1.10;99.90;;;;;;5118711;28;20516;-58
2024/01/18 01:07:18;;;;;;;31.70;24.50;;;-1.10;99.90;;;;;;5118748;28;20760;-58
2024/01/18 01:09:47;;;;;;;30.27;21.80;;;-1.30;99.90;;;;;;5118593;28;20476;-57
2024/01/18 01:12:14;;;;;;;28.10;23.33;;;-1.30;99.90;;;;;;5118529;28;20799;-58
2024/01/18 01:14:41;;;;;;;33.23;24.77;;;-1.20;99.90;;;;;;5118735;28;20770;-58
2024/01/18 01:17:09;;;;;;;31.83;23.70;;;-1.20;99.90;;;;;;5118790;28;20550;-57
2024/01/18 01:19:36;;;;;;;30.87;23.37;;;-1.20;99.90;;;;;;5119000;28;20542;-57
2024/01/18 01:22:03;;;;;;;30.97;23.10;;;-1.10;99.90;;;;;;5117934;28;20497;-58
2024/01/18 01:24:30;;;;;;;34.67;23.93;;;-1.10;99.90;;;;;;5118019;28;20490;-58
2024/01/18 01:26:59;;;;;;;29.10;21.83;;;-1.10;99.90;;;;;;5117901;28;20562;-57
2024/01/18 01:29:26;;;;;;;29.73;22.33;;;-1.10;99.90;;;;;;5118335;28;20487;-56
2024/01/18 01:31:53;;;;;;;29.00;22.37;;;-1.10;99.90;;;;;;5118139;28;20781;-57
2024/01/18 01:34:21;;;;;;;34.13;22.73;;;-1.10;99.90;;;;;;5117974;28;20834;-57
2024/01/18 01:36:48;;;;;;;24.80;20.67;;;-1.10;99.90;;;;;;5117967;28;20491;-57
2024/01/18 01:39:15;;;;;;;33.53;22.40;;;-1.20;99.90;;;;;;5118452;28;20463;-57
2024/01/18 01:41:42;;;;;;;27.83;21.80;;;-1.10;99.90;;;;;;5118037;28;20455;-58
2024/01/18 01:44:11;;;;;;;27.00;20.23;;;-1.20;99.90;;;;;;5117984;28;20952;-56
2024/01/18 01:46:38;;;;;;;28.13;22.73;;;-1.20;99.90;;;;;;5117749;28;20488;-57
2024/01/18 01:49:07;;;;;;;28.17;22.00;;;-1.20;99.90;;;;;;5118265;28;20459;-57
2024/01/18 01:51:39;;;;;;;32.97;21.90;;;-1.20;99.90;;;;;;5118064;28;20483;-57
2024/01/18 01:54:07;;;;;;;26.87;21.37;;;-1.20;99.90;;;;;;5117776;28;20466;-56
2024/01/18 01:56:35;;;;;;;26.83;20.80;;;-1.20;99.90;;;;;;5117680;28;20430;-57
2024/01/18 01:59:03;;;;;;;24.90;19.30;;;-1.20;99.90;;;;;;5118077;28;20461;-57
2024/01/18 02:01:32;;;;;;;28.40;23.20;;;-1.20;99.90;;;;;;5117647;28;20518;-57
2024/01/18 02:03:59;;;;;;;29.80;21.13;;;-1.10;99.90;;;;;;5117713;28;20490;-57
2024/01/18 02:06:27;;;;;;;25.27;20.57;;;-1.10;99.90;;;;;;5117794;28;20485;-56
2024/01/18 02:08:54;;;;;;;28.03;21.10;;;-1.10;99.90;;;;;;5116850;28;20492;-57
2024/01/18 02:11:22;;;;;;;30.00;20.80;;;-1.20;99.90;;;;;;5117894;28;20901;-57
2024/01/18 02:13:50;;;;;;;25.60;20.20;;;-1.20;99.90;;;;;;5117280;28;20530;-57
2024/01/18 02:19:47;;;;;;;25.53;21.37;;;-1.30;99.90;;;;;;5116297;28;20531;-56
2024/01/18 02:22:16;;;;;;;30.17;21.70;;;-1.20;99.90;;;;;;5116138;28;20451;-57
2024/01/18 02:24:49;;;;;;;27.27;21.13;;;-1.20;99.90;;;;;;5116174;28;20496;-56
2024/01/18 02:27:19;;;;;;;28.00;20.40;;;-1.20;99.90;;;;;;5116427;28;20459;-57
2024/01/18 02:29:46;;;;;;;28.93;21.00;;;-1.30;99.90;;;;;;5117126;28;20544;-57
2024/01/18 02:32:14;;;;;;;25.20;19.80;;;-1.40;99.90;;;;;;5117163;28;20990;-56
2024/01/18 02:34:43;;;;;;;36.43;21.07;;;-1.30;99.90;;;;;;5117674;28;20509;-55
2024/01/18 02:37:11;;;;;;;31.67;21.60;;;-1.20;99.90;;;;;;5117893;28;20463;-56
2024/01/18 02:39:38;;;;;;;26.23;19.83;;;-1.20;99.90;;;;;;5118145;28;20434;-56
2024/01/18 02:42:06;;;;;;;25.50;20.53;;;-1.20;99.90;;;;;;5117675;28;20558;-56
2024/01/18 02:44:37;;;;;;;27.47;21.03;;;-1.40;99.90;;;;;;5117943;28;20463;-55
2024/01/18 02:47:04;;;;;;;28.80;22.30;;;-1.40;99.90;;;;;;5117982;28;20882;-54
2024/01/18 02:49:31;;;;;;;29.80;21.20;;;-1.50;99.90;;;;;;5117045;28;20463;-56
2024/01/18 02:51:58;;;;;;;34.77;22.63;;;-1.60;99.90;;;;;;5117311;28;20492;-55
2024/01/18 02:54:25;;;;;;;25.73;21.87;;;-1.60;99.90;;;;;;5117790;28;20458;-53
2024/01/18 02:56:53;;;;;;;31.33;22.13;;;-1.60;99.90;;;;;;5117631;28;20458;-56
2024/01/18 02:59:20;;;;;;;28.80;22.40;;;-1.60;99.90;;;;;;5117103;28;20467;-56
2024/01/18 03:01:49;;;;;;;28.63;21.70;;;-1.60;99.90;;;;;;5117429;28;20545;-55
2024/01/18 03:04:16;;;;;;;32.40;21.30;;;-1.50;99.90;;;;;;5117763;28;20753;-55
2024/01/18 03:06:44;;;;;;;28.43;21.73;;;-1.50;99.90;;;;;;5119534;28;20444;-53
2024/01/18 03:09:12;;;;;;;28.30;22.47;;;-1.40;99.90;;;;;;5121106;28;20489;-55
2024/01/18 03:11:39;;;;;;;28.33;22.10;;;-1.30;99.90;;;;;;5121566;28;20441;-53
2024/01/18 03:14:07;;;;;;;32.43;23.13;;;-1.30;99.90;;;;;;5120838;28;20456;-54
2024/01/18 03:16:36;;;;;;;26.57;22.30;;;-1.20;99.90;;;;;;5121195;28;20751;-56
2024/01/18 03:19:05;;;;;;;33.83;24.10;;;-1.20;99.90;;;;;;5120547;28;20774;-55
2024/01/18 03:21:32;;;;;;;28.23;22.20;;;-1.20;99.90;;;;;;5121506;28;20588;-55
2024/01/18 03:23:59;;;;;;;33.60;23.87;;;-1.20;99.90;;;;;;5120647;28;20433;-62
2024/01/18 03:26:26;;;;;;;26.57;21.93;;;-1.20;99.90;;;;;;5120269;28;20557;-63
2024/01/18 03:28:53;;;;;;;33.27;24.40;;;-1.20;99.90;;;;;;5120391;28;20465;-62
2024/01/18 03:31:20;;;;;;;33.77;23.30;;;-1.20;99.90;;;;;;5120996;28;20457;-62
2024/01/18 03:33:47;;;;;;;27.50;22.27;;;-1.20;99.90;;;;;;5119717;28;20493;-63
2024/01/18 03:36:16;;;;;;;31.30;22.77;;;-1.20;99.90;;;;;;5120258;28;20823;-63
2024/01/18 03:38:43;;;;;;;28.30;22.43;;;-1.30;99.90;;;;;;5120433;28;20456;-63
2024/01/18 03:41:10;;;;;;;28.03;22.33;;;-1.30;99.90;;;;;;5120546;28;20459;-63
2024/01/18 03:43:37;;;;;;;29.30;24.50;;;-1.30;99.90;;;;;;5120100;28;20545;-62
2024/01/18 03:46:05;;;;;;;31.47;23.60;;;-1.30;99.90;;;;;;5119574;28;20462;-63
2024/01/18 03:48:32;;;;;;;30.27;24.27;;;-1.30;99.90;;;;;;5119845;28;20447;-63
2024/01/18 03:50:59;;;;;;;31.17;23.10;;;-1.20;99.90;;;;;;5119588;28;20455;-63
2024/01/18 03:53:27;;;;;;;32.87;23.87;;;-1.20;99.90;;;;;;5120305;28;20509;-62
2024/01/18 03:55:54;;;;;;;28.80;22.97;;;-1.20;99.90;;;;;;5120306;28;20490;-62
2024/01/18 03:58:22;;;;;;;43.13;30.90;;;-1.10;99.90;;;;;;5119708;28;20732;-63
2024/01/18 04:00:49;;;;;;;35.20;27.27;;;-1.10;99.90;;;;;;5119132;28;20455;-63
2024/01/18 04:03:16;;;;;;;30.10;24.80;;;-1.10;99.90;;;;;;5119799;28;20543;-63
2024/01/18 04:05:43;;;;;;;38.43;23.43;;;-1.10;99.90;;;;;;5119374;28;20538;-63
2024/01/18 04:08:11;;;;;;;32.80;23.47;;;-1.20;99.90;;;;;;5119223;28;20462;-63
2024/01/18 04:10:39;;;;;;;32.20;23.97;;;-1.20;99.90;;;;;;5119793;28;20519;-63
2024/01/18 04:13:06;;;;;;;37.57;25.30;;;-1.20;99.90;;;;;;5119626;28;20592;-63
2024/01/18 04:15:33;;;;;;;35.77;24.73;;;-1.20;99.90;;;;;;5119704;28;20938;-63
2024/01/18 04:18:01;;;;;;;32.07;25.03;;;-1.20;99.90;;;;;;5119108;28;20528;-63
2024/01/18 04:20:29;;;;;;;32.87;25.13;;;-1.20;99.90;;;;;;5119163;28;20553;-63
2024/01/18 04:22:56;;;;;;;29.23;25.27;;;-1.20;99.90;;;;;;5119331;28;20468;-62
2024/01/18 04:25:24;;;;;;;29.67;23.90;;;-1.20;99.90;;;;;;5118972;28;20466;-62
2024/01/18 04:27:52;;;;;;;32.10;24.23;;;-1.20;99.90;;;;;;5119083;28;20459;-63
2024/01/18 04:30:20;;;;;;;33.40;24.73;;;-1.30;99.90;;;;;;5119165;28;20864;-63
2024/01/18 04:32:47;;;;;;;31.00;21.97;;;-1.30;99.90;;;;;;5119070;28;20480;-63
2024/01/18 04:35:14;;;;;;;33.23;25.70;;;-1.30;99.90;;;;;;5119401;28;20723;-62
2024/01/18 04:37:41;;;;;;;31.83;24.63;;;-1.20;99.90;;;;;;5119269;28;20459;-63
2024/01/18 04:40:10;;;;;;;30.77;24.10;;;-1.20;99.90;;;;;;5118882;28;20743;-63
2024/01/18 04:42:37;;;;;;;34.53;24.47;;;-1.20;99.90;;;;;;5119007;28;20459;-63
2024/01/18 04:45:07;;;;;;;30.10;24.43;;;-1.20;99.90;;;;;;5118976;28;20494;-63
2024/01/18 04:47:34;;;;;;;32.90;24.80;;;-1.20;99.90;;;;;;5118786;28;20453;-62
2024/01/18 04:50:03;;;;;;;33.97;24.27;;;-1.20;99.90;;;;;;5118808;28;20556;-63
2024/01/18 04:52:30;;;;;;;31.37;25.77;;;-1.20;99.90;;;;;;5118484;28;20487;-63
2024/01/18 04:54:58;;;;;;;33.40;24.93;;;-1.30;99.90;;;;;;5118911;28;20715;-63
2024/01/18 04:57:26;;;;;;;33.20;24.67;;;-1.30;99.90;;;;;;5118871;28;20766;-62
2024/01/18 04:59:53;;;;;;;30.37;23.80;;;-1.30;99.90;;;;;;5118316;28;20462;-63
2024/01/18 05:02:22;;;;;;;29.20;22.77;;;-1.30;99.90;;;;;;5118376;28;20476;-63
2024/01/18 05:04:49;;;;;;;31.10;23.30;;;-1.20;99.90;;;;;;5118648;28;20475;-63
2024/01/18 05:07:16;;;;;;;29.83;24.40;;;-1.20;99.90;;;;;;5119002;28;20957;-63
2024/01/18 05:09:44;;;;;;;30.70;24.93;;;-1.20;99.90;;;;;;5118085;28;20483;-63
2024/01/18 05:12:11;;;;;;;38.10;27.00;;;-1.10;99.90;;;;;;5118554;28;20459;-63
2024/01/18 05:14:38;;;;;;;36.10;27.60;;;-1.10;99.90;;;;;;5118655;28;20486;-63
2024/01/18 05:17:10;;;;;;;32.70;24.27;;;-1.10;99.90;;;;;;5118144;28;20558;-62
2024/01/18 05:19:39;;;;;;;32.10;25.60;;;-1.20;99.90;;;;;;5116045;28;20463;-62
2024/01/18 05:22:07;;;;;;;32.63;26.00;;;-1.30;99.90;;;;;;5116707;28;20554;-62
2024/01/18 05:24:35;;;;;;;32.80;25.17;;;-1.30;99.90;;;;;;5117312;28;20508;-62
2024/01/18 05:27:02;;;;;;;32.23;25.80;;;-1.40;99.90;;;;;;5117781;28;20561;-62
2024/01/18 05:29:30;;;;;;;30.80;25.00;;;-1.40;99.90;;;;;;5117433;28;20455;-62
2024/01/18 05:31:57;;;;;;;28.73;24.83;;;-1.40;99.90;;;;;;5114321;28;20504;-62
2024/01/18 05:34:24;;;;;;;31.27;23.87;;;-1.40;99.90;;;;;;5130752;27;20491;-62
2024/01/18 05:36:52;;;;;;;32.80;26.00;;;-1.30;99.90;;;;;;5138268;27;20874;-63
2024/01/18 05:39:19;;;;;;;30.47;24.90;;;-1.30;99.90;;;;;;5138289;27;20454;-63
2024/01/18 05:41:47;;;;;;;31.93;25.73;;;-1.30;99.90;;;;;;5137787;27;20498;-62
2024/01/18 05:44:14;;;;;;;32.30;25.30;;;-1.20;99.90;;;;;;5138274;27;20570;-62
2024/01/18 05:46:42;;;;;;;31.20;24.57;;;-1.20;99.90;;;;;;5138026;27;20465;-62
2024/01/18 05:49:09;;;;;;;33.13;26.17;;;-1.30;99.90;;;;;;5138336;27;20458;-63
2024/01/18 05:51:36;;;;;;;32.33;25.37;;;-1.30;99.90;;;;;;5138332;27;20521;-63
2024/01/18 05:54:05;;;;;;;32.17;25.30;;;-1.30;99.90;;;;;;5137891;27;20541;-62
2024/01/18 05:56:32;;;;;;;32.43;24.60;;;-1.30;99.90;;;;;;5137707;27;20457;-62
2024/01/18 05:58:59;;;;;;;38.17;26.90;;;-1.30;99.90;;;;;;5137997;27;20436;-63
2024/01/18 06:01:26;;;;;;;36.87;27.87;;;-1.20;99.90;;;;;;5136903;27;20786;-61
2024/01/18 06:03:53;;;;;;;34.07;26.37;;;-1.20;99.90;;;;;;5136745;27;20536;-62
2024/01/18 06:06:21;;;;;;;36.17;26.37;;;-1.20;99.90;;;;;;5116826;28;20459;-63
2024/01/18 06:08:48;;;;;;;30.63;24.67;;;-1.20;99.90;;;;;;5116951;28;20566;-63
2024/01/18 06:11:18;;;;;;;31.73;26.20;;;-1.20;99.90;;;;;;5117460;28;20727;-63
2024/01/18 06:13:45;;;;;;;34.57;26.83;;;-1.20;99.90;;;;;;5117137;28;20485;-63
2024/01/18 06:16:13;;;;;;;35.60;25.73;;;-1.10;99.90;;;;;;5116899;28;20460;-60
2024/01/18 06:18:42;;;;;;;34.03;26.27;;;-1.10;99.90;;;;;;5117156;28;20546;-63
2024/01/18 06:21:10;;;;;;;31.43;24.97;;;-1.10;99.90;;;;;;5117286;28;20498;-63
2024/01/18 06:23:37;;;;;;;32.73;25.40;;;-1.00;99.90;;;;;;5116916;28;20920;-63
2024/01/18 06:26:08;;;;;;;32.37;25.57;;;-1.10;99.90;;;;;;5116503;28;20546;-62
2024/01/18 06:28:37;;;;;;;36.80;27.10;;;-1.10;99.90;;;;;;5116531;28;20847;-62
2024/01/18 06:31:04;;;;;;;31.83;25.73;;;-1.00;99.90;;;;;;5115368;28;20520;-61
2024/01/18 06:33:31;;;;;;;32.10;25.37;;;-0.90;99.90;;;;;;5113455;28;20578;-61
2024/01/18 06:35:59;;;;;;;30.27;25.47;;;-0.90;99.90;;;;;;5114136;28;20434;-59
2024/01/18 06:38:26;;;;;;;36.83;27.80;;;-0.80;99.90;;;;;;5116326;28;20498;-60
2024/01/18 06:40:54;;;;;;;34.17;26.70;;;-0.90;99.90;;;;;;5116462;28;20777;-60
2024/01/18 06:43:21;;;;;;;35.50;25.67;;;-0.90;99.90;;;;;;5120946;28;20451;-60
2024/01/18 06:45:54;;;;;;;32.83;24.83;;;-0.90;99.90;;;;;;5121102;28;20459;-60
2024/01/18 06:48:21;;;;;;;38.50;24.80;;;-0.90;99.90;;;;;;5121486;28;20773;-60
2024/01/18 06:50:48;;;;;;;27.53;24.50;;;-0.90;99.90;;;;;;5121136;28;20466;-60
2024/01/18 06:53:16;;;;;;;36.67;25.80;;;-0.90;99.90;;;;;;5121255;28;20839;-60
2024/01/18 06:55:43;;;;;;;30.40;24.37;;;-1.00;99.90;;;;;;5121303;28;20831;-60
2024/01/18 06:58:10;;;;;;;35.17;23.70;;;-1.00;99.90;;;;;;5121314;28;20456;-60
2024/01/18 07:00:37;;;;;;;31.73;23.00;;;-1.00;99.90;;;;;;5121225;28;20467;-60
2024/01/18 07:03:08;;;;;;;28.90;24.90;;;-1.00;99.90;;;;;;5121145;28;20451;-60
2024/01/18 07:05:35;;;;;;;33.40;27.07;;;-0.90;99.90;;;;;;5121043;28;20456;-60
2024/01/18 07:08:03;;;;;;;35.43;25.20;;;-1.00;99.90;;;;;;5120219;28;20462;-60
2024/01/18 07:10:30;;;;;;;29.30;24.30;;;-1.10;99.90;;;;;;5119908;28;20466;-59
2024/01/18 07:12:58;;;;;;;34.50;27.60;;;-1.10;99.90;;;;;;5120390;28;20458;-58
2024/01/18 07:15:25;;;;;;;37.80;29.97;;;-1.20;99.90;;;;;;5120524;28;20458;-60
2024/01/18 07:17:53;;;;;;;33.47;26.10;;;-1.20;99.90;;;;;;5119913;28;20459;-60
2024/01/18 07:20:21;;;;;;;39.57;27.83;;;-1.30;99.90;;;;;;5120220;28;20463;-60
2024/01/18 07:22:49;;;;;;;35.63;26.87;;;-1.30;99.90;;;;;;5119923;28;20954;-59
2024/01/18 07:25:16;;;;;;;34.63;26.47;;;-1.30;99.90;;;;;;5119727;28;20458;-60
2024/01/18 07:27:43;;;;;;;33.77;26.90;;;-1.30;99.90;;;;;;5120412;28;20487;-59
2024/01/18 07:30:14;;;;;;;33.67;25.40;;;-1.40;99.90;;;;;;5120287;28;20477;-59
2024/01/18 07:32:41;;;;;;;33.23;25.97;;;-1.40;99.90;;;;;;5120330;28;20464;-60
2024/01/18 07:35:09;;;;;;;36.53;26.63;;;-1.50;99.90;;;;;;5119008;27;20530;-59
2024/01/18 07:37:37;;;;;;;34.17;27.00;;;-1.50;99.90;;;;;;5118831;28;20437;-57
2024/01/18 07:40:06;;;;;;;34.50;26.57;;;-1.60;99.90;;;;;;5118611;28;20529;-59
2024/01/18 07:42:33;;;;;;;42.73;29.10;;;-1.70;99.90;;;;;;5120088;28;20510;-59
2024/01/18 07:45:00;;;;;;;36.60;27.40;;;-1.60;99.90;;;;;;5120509;28;20454;-60
2024/01/18 07:47:28;;;;;;;39.93;29.30;;;-1.60;99.90;;;;;;5120239;28;20553;-60
2024/01/18 07:49:55;;;;;;;35.43;27.10;;;-1.70;99.90;;;;;;5119989;28;20458;-59
2024/01/18 07:52:22;;;;;;;33.57;26.40;;;-1.70;99.90;;;;;;5119780;28;20459;-60
2024/01/18 07:54:51;;;;;;;31.53;25.90;;;-1.70;99.90;;;;;;5119846;28;20491;-60
2024/01/18 07:57:18;;;;;;;36.07;26.67;;;-1.80;99.90;;;;;;5120452;28;20467;-59
2024/01/18 07:59:45;;;;;;;33.93;26.23;;;-1.80;99.90;;;;;;5120395;28;20540;-59
2024/01/18 08:02:13;;;;;;;31.50;26.67;;;-2.00;99.90;;;;;;5119648;28;20459;-59
2024/01/18 08:04:40;;;;;;;38.93;26.77;;;-2.10;99.90;;;;;;5120640;27;20889;-59
2024/01/18 08:07:07;;;;;;;32.30;27.40;;;-2.20;99.90;;;;;;5119807;28;20456;-59
2024/01/18 08:09:37;;;;;;;34.70;28.00;;;-2.10;99.90;;;;;;5119375;28;20773;-59
2024/01/18 08:12:07;;;;;;;33.23;26.83;;;-2.10;99.90;;;;;;5119752;28;20445;-60
2024/01/18 08:14:40;;;;;;;34.97;27.83;;;-2.00;99.90;;;;;;5119683;28;20493;-59
2024/01/18 08:17:08;;;;;;;37.60;27.77;;;-2.10;99.90;;;;;;5119907;28;20458;-59
2024/01/18 08:19:35;;;;;;;37.20;27.90;;;-2.20;99.90;;;;;;5119731;28;20500;-58
2024/01/18 08:22:02;;;;;;;37.13;28.70;;;-2.20;99.90;;;;;;5119238;28;20954;-59
2024/01/18 08:24:30;;;;;;;38.43;27.87;;;-2.20;99.90;;;;;;5118900;28;20497;-58
2024/01/18 08:26:56;;;;;;;34.60;28.07;;;-2.10;99.90;;;;;;5118044;28;20901;-59
2024/01/18 08:29:26;;;;;;;33.97;28.57;;;-2.10;99.90;;;;;;5119710;28;20497;-59
2024/01/18 08:31:54;;;;;;;42.37;28.40;;;-2.10;99.90;;;;;;5119329;28;20541;-59
2024/01/18 08:34:21;;;;;;;38.10;27.00;;;-2.10;99.90;;;;;;5118812;28;20907;-59
2024/01/18 08:36:49;;;;;;;37.60;28.70;;;-2.20;99.90;;;;;;5119562;28;20489;-59
2024/01/18 08:39:17;;;;;;;34.17;26.30;;;-2.30;99.90;;;;;;5119335;28;20460;-60
2024/01/18 08:41:44;;;;;;;36.20;28.37;;;-2.20;99.90;;;;;;5118219;28;20466;-59
2024/01/18 08:44:12;;;;;;;33.63;27.90;;;-2.20;99.90;;;;;;5118194;28;20821;-58
2024/01/18 08:46:41;;;;;;;34.80;28.40;;;-2.20;99.90;;;;;;5118842;28;20461;-59
2024/01/18 08:49:08;;;;;;;42.50;32.33;;;-2.30;99.90;;;;;;5118778;27;20457;-59
2024/01/18 08:51:36;;;;;;;46.03;33.23;;;-2.20;99.90;;;;;;5118545;28;20556;-59
2024/01/18 08:54:03;;;;;;;45.97;32.97;;;-2.20;99.90;;;;;;5117230;28;20468;-59
2024/01/18 08:56:30;;;;;;;48.97;34.30;;;-2.20;99.90;;;;;;5116265;28;20849;-59
2024/01/18 08:58:58;;;;;;;54.17;38.07;;;-2.00;99.90;;;;;;5117087;28;20556;-59
2024/01/18 09:01:25;;;;;;;45.87;33.70;;;-2.00;99.90;;;;;;5116906;28;20468;-60
2024/01/18 09:03:54;;;;;;;42.40;34.27;;;-1.80;99.90;;;;;;5115949;28;20453;-60
2024/01/18 09:06:21;;;;;;;41.20;32.47;;;-1.70;99.90;;;;;;5116829;28;20459;-60
2024/01/18 09:08:48;;;;;;;42.97;32.00;;;-1.50;99.90;;;;;;5117277;28;20518;-61
2024/01/18 09:11:16;;;;;;;42.97;33.23;;;-1.40;99.90;;;;;;5118174;28;20465;-61
2024/01/18 09:13:43;;;;;;;42.30;31.30;;;-1.40;99.90;;;;;;5118315;28;20490;-61
2024/01/18 09:16:14;;;;;;;39.40;31.10;;;-1.30;99.90;;;;;;5118167;28;20516;-61
2024/01/18 09:18:41;;;;;;;39.87;31.00;;;-1.20;99.90;;;;;;5118420;28;20462;-60
2024/01/18 09:21:09;;;;;;;48.23;32.33;;;-1.10;99.90;;;;;;5118128;28;20569;-61
2024/01/18 09:23:40;;;;;;;44.10;33.40;;;-1.10;99.90;;;;;;5118258;28;20450;-61
2024/01/18 09:26:07;;;;;;;45.53;33.17;;;-1.00;99.90;;;;;;5117646;28;20466;-61
2024/01/18 09:28:35;;;;;;;38.33;30.87;;;-0.80;99.90;;;;;;5118306;28;20739;-61
2024/01/18 09:31:03;;;;;;;42.20;30.03;;;-0.70;99.90;;;;;;5118041;28;20459;-61
2024/01/18 09:33:30;;;;;;;38.20;29.87;;;-0.60;99.90;;;;;;5117339;28;20456;-59
2024/01/18 09:35:57;;;;;;;44.50;32.03;;;-0.50;99.90;;;;;;5117229;27;20810;-63
2024/01/18 09:38:29;;;;;;;39.30;32.10;;;-0.30;99.90;;;;;;5117705;28;20485;-62
2024/01/18 09:41:01;;;;;;;41.07;31.67;;;-0.30;99.90;;;;;;5118097;28;20463;-62
2024/01/18 09:43:30;;;;;;;42.87;34.47;;;-0.30;99.90;;;;;;5117968;28;20546;-62
2024/01/18 09:45:59;;;;;;;48.80;33.30;;;-0.30;99.90;;;;;;5117163;28;20493;-62
2024/01/18 09:48:27;;;;;;;41.80;34.97;;;-0.10;99.90;;;;;;5117052;28;20505;-61
2024/01/18 09:50:56;;;;;;;36.80;29.50;;;0.00;99.90;;;;;;5116375;28;20823;-63
2024/01/18 09:53:25;;;;;;;33.57;28.00;;;0.00;99.90;;;;;;5117578;28;20527;-64
2024/01/18 09:55:56;;;;;;;43.50;31.63;;;0.00;99.90;;;;;;5115715;28;20490;-65
2024/01/18 09:58:23;;;;;;;40.57;30.00;;;0.00;99.90;;;;;;5117590;28;20803;-66
2024/01/18 10:00:56;;;;;;;34.57;26.73;;;0.00;99.90;;;;;;5117959;28;20560;-67
2024/01/18 10:03:24;;;;;;;46.57;30.63;;;0.20;99.90;;;;;;5117859;28;20462;-68
2024/01/18 10:05:52;;;;;;;36.50;28.60;;;0.40;99.90;;;;;;5117201;28;20455;-67
2024/01/18 10:08:19;;;;;;;41.13;30.63;;;0.50;99.90;;;;;;5117342;28;20472;-67
2024/01/18 10:10:48;;;;;;;37.07;27.73;;;0.30;99.90;;;;;;5117759;28;20554;-68
2024/01/18 10:13:16;;;;;;;32.40;27.90;;;0.40;99.90;;;;;;5117713;28;20525;-69
2024/01/18 10:15:44;;;;;;;31.17;26.30;;;0.40;99.90;;;;;;5121849;28;20541;-69
2024/01/18 10:18:11;;;;;;;38.43;26.80;;;0.60;99.90;;;;;;5125140;28;20459;-70
2024/01/18 10:20:40;;;;;;;29.83;24.17;;;0.70;99.90;;;;;;5124212;28;20730;-69
2024/01/18 10:23:07;;;;;;;34.97;26.43;;;0.70;99.90;;;;;;5124748;28;20538;-68
2024/01/18 10:25:35;;;;;;;29.03;23.67;;;0.60;99.90;;;;;;5125840;27;20500;-67
2024/01/18 10:28:04;;;;;;;30.47;23.83;;;0.80;1.00;;;;;;5125125;27;20528;-67
2024/01/18 10:30:36;;;;;;;26.70;21.90;;;0.90;99.90;;;;;;5124421;28;20459;-68
2024/01/18 10:33:03;;;;;;;21.70;17.20;;;1.00;99.90;;;;;;5124062;28;20920;-65
2024/01/18 10:35:33;;;;;;;19.67;14.53;;;0.80;89.80;;;;;;5124262;28;20498;-65
2024/01/18 10:38:04;;;;;;;17.90;12.17;;;0.90;39.50;;;;;;5122699;27;20528;-64
2024/01/18 10:40:36;;;;;;;16.60;13.00;;;0.70;7.50;;;;;;5123281;27;20817;-63
2024/01/18 10:43:05;;;;;;;20.40;12.27;;;0.80;1.00;;;;;;5123452;27;20790;-64
2024/01/18 10:45:33;;;;;;;18.40;12.80;;;0.80;1.00;;;;;;5124343;27;20480;-64
2024/01/18 10:48:01;;;;;;;13.47;11.30;;;0.80;1.00;;;;;;5124393;27;20459;-64
2024/01/18 10:50:29;;;;;;;17.60;10.53;;;0.60;1.00;;;;;;5124119;27;20455;-64
2024/01/18 10:52:58;;;;;;;15.57;11.57;;;0.90;1.00;;;;;;5123938;27;20458;-65
2024/01/18 10:55:25;;;;;;;13.37;11.97;;;1.00;1.00;;;;;;5123851;27;20943;-65
2024/01/18 10:57:53;;;;;;;14.30;11.17;;;1.00;1.00;;;;;;5123912;27;20455;-64
2024/01/18 11:00:22;;;;;;;19.53;11.43;;;1.00;1.00;;;;;;5123572;27;20885;-65
2024/01/18 11:02:50;;;;;;;17.20;11.47;;;0.90;1.00;;;;;;5121362;28;20996;-66
2024/01/18 11:05:20;;;;;;;15.40;12.17;;;1.00;1.00;;;;;;5123684;27;20451;-64
2024/01/18 11:07:49;;;;;;;15.77;12.30;;;1.10;1.00;;;;;;5123305;27;20497;-65
2024/01/18 11:10:16;;;;;;;11.77;9.13;;;1.10;1.00;;;;;;5122286;27;20548;-64
2024/01/18 11:12:49;;;;;;;15.60;10.37;;;1.20;1.00;;;;;;5122193;27;20487;-65
2024/01/18 11:15:17;;;;;;;14.93;9.30;;;1.10;1.00;;;;;;5122424;27;20893;-66
2024/01/18 11:17:47;;;;;;;15.50;8.73;;;1.10;1.00;;;;;;5122399;28;20505;-65
2024/01/18 11:20:15;;;;;;;17.20;9.80;;;1.10;1.00;;;;;;5122344;27;20516;-65
2024/01/18 11:22:43;;;;;;;18.37;9.47;;;1.30;1.00;;;;;;5122155;27;20897;-65
2024/01/18 11:25:11;;;;;;;12.63;7.67;;;1.30;1.00;;;;;;5122473;27;20459;-66
2024/01/18 11:27:40;;;;;;;10.20;7.87;;;1.30;1.00;;;;;;5122944;27;20455;-65
2024/01/18 11:30:11;;;;;;;10.33;7.40;;;1.40;1.00;;;;;;5130566;28;20458;-65
2024/01/18 11:32:39;;;;;;;9.23;7.47;;;1.30;1.00;;;;;;5130415;28;20455;-64
2024/01/18 11:35:13;;;;;;;10.17;7.00;;;1.10;1.00;;;;;;5123140;28;20465;-64
2024/01/18 11:37:41;;;;;;;9.93;7.40;;;1.40;1.00;;;;;;5128037;28;20471;-64
2024/01/18 11:40:10;;;;;;;9.80;7.50;;;1.40;1.00;;;;;;5125794;28;20459;-63
2024/01/18 11:42:40;;;;;;;11.80;8.00;;;1.40;1.00;;;;;;5121740;28;20452;-63
2024/01/18 11:45:16;;;;;;;11.70;7.60;;;1.40;1.00;;;;;;5121138;28;20462;-63
2024/01/18 11:47:44;;;;;;;11.60;7.30;;;1.60;1.00;;;;;;5119451;28;20455;-63
2024/01/18 11:50:14;;;;;;;9.10;7.20;;;1.90;1.00;;;;;;5118744;28;20537;-63
2024/01/18 11:52:43;;;;;;;11.53;9.00;;;1.60;1.00;;;;;;5118841;28;20885;-63
2024/01/18 11:55:14;;;;;;;14.37;7.37;;;1.60;1.00;;;;;;5119109;28;20912;-63
2024/01/18 11:57:41;;;;;;;11.57;7.63;;;1.70;1.00;;;;;;5119156;28;20833;-63
2024/01/18 12:00:10;;;;;;;14.53;8.13;;;1.70;1.00;;;;;;5118774;28;20489;-62
2024/01/18 12:02:38;;;;;;;11.47;7.53;;;1.50;1.00;;;;;;5119719;28;20480;-61
2024/01/18 12:05:07;;;;;;;10.47;8.40;;;1.50;1.00;;;;;;5118800;28;20456;-62
2024/01/18 12:07:38;;;;;;;11.17;8.53;;;1.50;1.00;;;;;;5118721;27;20760;-62
2024/01/18 12:10:07;;;;;;;12.00;9.23;;;1.50;1.00;;;;;;5117811;28;20856;-62
2024/01/18 12:12:36;;;;;;;16.17;10.43;;;1.70;1.00;;;;;;5118516;28;20933;-61
2024/01/18 12:15:04;;;;;;;12.90;10.87;;;1.60;1.00;;;;;;5118547;28;20501;-61
2024/01/18 12:17:32;;;;;;;15.33;12.13;;;1.50;1.00;;;;;;5118099;28;20481;-59
2024/01/18 12:20:01;;;;;;;17.90;11.77;;;1.50;1.00;;;;;;5117578;28;20463;-60
2024/01/18 12:22:29;;;;;;;17.50;12.73;;;1.60;1.00;;;;;;5119063;28;20462;-60
2024/01/18 12:24:58;;;;;;;13.27;11.03;;;1.60;1.00;;;;;;5119862;28;20760;-60
2024/01/18 12:27:25;;;;;;;16.43;12.43;;;1.70;1.00;;;;;;5118725;28;20489;-60
2024/01/18 12:29:53;;;;;;;20.97;12.40;;;1.80;1.00;;;;;;5117814;28;20460;-60
2024/01/18 12:32:20;;;;;;;15.50;12.30;;;1.80;1.00;;;;;;5118032;28;20455;-59
2024/01/18 12:34:48;;;;;;;15.00;11.90;;;1.90;1.00;;;;;;5117763;28;20793;-60
2024/01/18 12:37:16;;;;;;;15.40;11.77;;;1.90;1.00;;;;;;5118212;28;20466;-59